Time;durP1;ratioP1;P1;durP2;ratioP2;P2;SDS_P1;SDS_P2;PMS_P1;PMS_P2;Temp;Humidity;BMP_temperature;BMP_pressure;BME280_temperature;BME280_humidity;BME280_pressure;Samples;Min_cycle;Max_cycle;Signal;HPM_P1;HPM_P2
2022/03/28 00:01:52;;;;;;;25.80;14.02;;;12.50;45.70;;;;;;5051227;28;20071;-73
2022/03/28 00:04:18;;;;;;;25.65;13.57;;;12.50;45.70;;;;;;5051097;28;20028;-73
2022/03/28 00:06:44;;;;;;;27.48;14.65;;;12.50;45.50;;;;;;5051200;28;20272;-73
2022/03/28 00:09:09;;;;;;;26.52;14.88;;;12.50;45.40;;;;;;5051089;28;20018;-73
2022/03/28 00:11:35;;;;;;;22.38;13.38;;;12.50;45.40;;;;;;5051350;28;20423;-73
2022/03/28 00:14:01;;;;;;;22.23;12.73;;;12.50;45.40;;;;;;5050802;28;20032;-73
2022/03/28 00:16:27;;;;;;;23.67;13.80;;;12.50;45.40;;;;;;5051060;28;20502;-73
2022/03/28 00:18:53;;;;;;;23.63;13.60;;;12.40;45.40;;;;;;5051188;28;20032;-73
2022/03/28 00:21:19;;;;;;;23.80;14.63;;;12.40;45.60;;;;;;5051060;28;20313;-73
2022/03/28 00:23:46;;;;;;;29.85;14.82;;;12.40;45.60;;;;;;5051014;28;20017;-73
2022/03/28 00:26:12;;;;;;;27.23;13.35;;;12.40;45.60;;;;;;5051098;28;20024;-73
2022/03/28 00:28:38;;;;;;;26.65;14.43;;;12.30;45.60;;;;;;5050933;28;20040;-73
2022/03/28 00:31:04;;;;;;;23.75;13.48;;;12.30;45.50;;;;;;5050931;28;20021;-73
2022/03/28 00:33:30;;;;;;;22.38;12.50;;;12.30;45.60;;;;;;5050890;28;20108;-73
2022/03/28 00:35:56;;;;;;;29.08;15.25;;;12.30;45.60;;;;;;5032749;28;20440;-73
2022/03/28 00:38:22;;;;;;;26.98;13.60;;;12.30;46.00;;;;;;5050939;28;20064;-73
2022/03/28 00:40:48;;;;;;;28.75;13.70;;;12.30;45.20;;;;;;5050876;28;20037;-73
2022/03/28 00:43:14;;;;;;;24.55;13.45;;;12.40;45.20;;;;;;5050743;28;20476;-73
2022/03/28 00:45:41;;;;;;;25.33;13.75;;;12.30;45.00;;;;;;5033017;28;20025;-73
2022/03/28 00:48:09;;;;;;;27.05;13.77;;;12.40;45.10;;;;;;5050958;28;20041;-73
2022/03/28 00:50:35;;;;;;;22.95;13.07;;;12.30;45.00;;;;;;5050975;28;20035;-73
2022/03/28 00:53:03;;;;;;;26.35;14.52;;;12.40;45.00;;;;;;5050611;28;20029;-73
2022/03/28 00:55:29;;;;;;;25.30;13.93;;;12.40;44.90;;;;;;5051517;28;20036;-73
2022/03/28 00:57:55;;;;;;;24.17;14.18;;;12.40;44.80;;;;;;5052206;28;20029;-73
2022/03/28 01:00:21;;;;;;;22.65;13.75;;;12.40;45.00;;;;;;5050509;28;20461;-73
2022/03/28 01:02:47;;;;;;;32.58;13.90;;;12.40;45.30;;;;;;5050537;28;20063;-73
2022/03/28 01:05:13;;;;;;;24.30;13.40;;;12.40;45.40;;;;;;5050756;28;20044;-73
2022/03/28 01:07:42;;;;;;;24.70;13.57;;;12.40;45.20;;;;;;5052447;28;20036;-73
2022/03/28 01:10:10;;;;;;;22.77;13.40;;;12.30;45.50;;;;;;5054209;28;20039;-73
2022/03/28 01:12:37;;;;;;;26.15;12.98;;;12.20;46.10;;;;;;5036090;28;20492;-73
2022/03/28 01:15:04;;;;;;;28.55;13.68;;;12.20;46.40;;;;;;5053535;28;20112;-73
2022/03/28 01:20:16;;;;;;;21.85;13.02;;;11.70;47.40;;;;;;5054445;28;20040;-73
2022/03/28 01:22:42;;;;;;;26.30;13.60;;;11.70;48.00;;;;;;5053815;28;20025;-73
2022/03/28 01:25:08;;;;;;;24.75;13.07;;;11.50;48.40;;;;;;5054164;28;20028;-73
2022/03/28 01:27:37;;;;;;;24.00;13.27;;;11.40;49.20;;;;;;5036059;28;20387;-73
2022/03/28 01:30:07;;;;;;;21.25;12.95;;;11.30;49.20;;;;;;5036082;28;20024;-73
2022/03/28 01:32:33;;;;;;;27.20;13.93;;;11.20;49.50;;;;;;5053696;28;20029;-73
2022/03/28 01:34:58;;;;;;;24.02;13.75;;;11.10;50.00;;;;;;5035928;28;20086;-73
2022/03/28 01:37:24;;;;;;;28.98;14.13;;;11.10;50.30;;;;;;5053936;28;20100;-73
2022/03/28 01:39:50;;;;;;;26.55;14.73;;;11.00;50.20;;;;;;5053561;28;20094;-73
2022/03/28 01:42:16;;;;;;;23.10;13.48;;;11.10;49.30;;;;;;5035943;28;20538;-73
2022/03/28 01:44:42;;;;;;;24.42;12.98;;;11.10;49.30;;;;;;5053552;28;20033;-73
2022/03/28 01:47:08;;;;;;;27.52;14.32;;;11.20;49.60;;;;;;5053613;28;20047;-73
2022/03/28 01:49:34;;;;;;;27.10;13.82;;;11.00;50.10;;;;;;5053548;28;20484;-73
2022/03/28 01:51:59;;;;;;;29.13;13.95;;;11.10;49.60;;;;;;5053693;28;20550;-73
2022/03/28 01:54:25;;;;;;;28.00;13.93;;;10.90;50.20;;;;;;5035252;28;20033;-73
2022/03/28 01:56:51;;;;;;;23.60;13.50;;;10.90;50.70;;;;;;5053532;28;20535;-73
2022/03/28 01:59:17;;;;;;;23.67;13.18;;;10.90;51.00;;;;;;5053587;28;20025;-73
2022/03/28 02:01:43;;;;;;;22.00;13.50;;;10.70;51.30;;;;;;5023044;28;20469;-73
2022/03/28 02:04:09;;;;;;;24.23;13.35;;;10.70;51.60;;;;;;5048624;28;20026;-73
2022/03/28 02:06:34;;;;;;;26.92;13.95;;;10.60;51.70;;;;;;5048478;28;20022;-73
2022/03/28 02:09:01;;;;;;;23.42;13.90;;;10.60;51.90;;;;;;5033372;28;20061;-73
2022/03/28 02:11:28;;;;;;;23.55;13.07;;;10.50;52.00;;;;;;5033173;28;20048;-73
2022/03/28 02:13:54;;;;;;;26.63;14.20;;;10.50;52.10;;;;;;5015424;28;20029;-73
2022/03/28 02:16:20;;;;;;;26.35;14.65;;;10.60;51.90;;;;;;5015144;28;20034;-72
2022/03/28 02:18:46;;;;;;;29.95;15.13;;;10.50;51.80;;;;;;5032448;28;20093;-73
2022/03/28 02:21:12;;;;;;;24.95;14.20;;;10.50;51.70;;;;;;5033259;28;20021;-73
2022/03/28 02:23:37;;;;;;;24.30;13.90;;;10.50;52.20;;;;;;5032878;28;20479;-73
2022/03/28 02:26:04;;;;;;;25.73;15.00;;;10.30;52.80;;;;;;5015184;28;20025;-73
2022/03/28 02:28:30;;;;;;;25.45;13.95;;;10.30;53.10;;;;;;5032744;28;20029;-73
2022/03/28 02:30:56;;;;;;;30.67;14.60;;;10.30;53.10;;;;;;5038578;28;20021;-73
2022/03/28 02:33:22;;;;;;;24.02;13.90;;;10.30;53.10;;;;;;5034741;28;20079;-73
2022/03/28 02:35:48;;;;;;;31.95;15.57;;;10.20;53.40;;;;;;5052776;28;20021;-73
2022/03/28 02:38:14;;;;;;;26.88;14.65;;;10.20;53.60;;;;;;5052375;28;20071;-73
2022/03/28 02:40:40;;;;;;;30.60;15.18;;;10.10;53.70;;;;;;5052515;28;20111;-73
2022/03/28 02:43:06;;;;;;;36.65;16.25;;;10.00;54.10;;;;;;5052616;28;20092;-73
2022/03/28 02:45:35;;;;;;;23.02;14.05;;;10.00;54.70;;;;;;5052540;28;20424;-73
2022/03/28 02:48:01;;;;;;;28.70;14.52;;;9.90;54.80;;;;;;5052278;28;20469;-73
2022/03/28 02:50:28;;;;;;;29.13;15.98;;;10.00;54.90;;;;;;5054763;28;20477;-73
2022/03/28 02:52:54;;;;;;;28.17;14.63;;;10.00;55.10;;;;;;5052445;28;20392;-73
2022/03/28 02:55:20;;;;;;;25.35;14.85;;;9.90;55.10;;;;;;5052160;28;20024;-73
2022/03/28 02:57:45;;;;;;;26.45;14.38;;;10.00;55.30;;;;;;5052316;28;20032;-73
2022/03/28 03:00:11;;;;;;;31.27;16.15;;;9.90;55.40;;;;;;5052202;28;20029;-73
2022/03/28 03:02:41;;;;;;;23.38;14.88;;;9.80;55.50;;;;;;5034046;28;20381;-73
2022/03/28 03:05:09;;;;;;;26.30;14.70;;;9.80;55.70;;;;;;5034100;28;20072;-73
2022/03/28 03:07:35;;;;;;;28.42;15.48;;;9.80;55.70;;;;;;5033711;28;20504;-73
2022/03/28 03:10:00;;;;;;;28.20;15.50;;;9.70;56.00;;;;;;5051961;28;20108;-73
2022/03/28 03:12:26;;;;;;;26.30;14.98;;;9.60;56.20;;;;;;5051984;28;20388;-73
2022/03/28 03:14:52;;;;;;;29.65;15.05;;;9.50;56.40;;;;;;5052219;28;20017;-73
2022/03/28 03:17:19;;;;;;;29.88;15.45;;;9.50;56.40;;;;;;5052033;28;20021;-73
2022/03/28 03:19:44;;;;;;;28.17;15.70;;;9.40;56.70;;;;;;5033929;28;20017;-73
2022/03/28 03:22:12;;;;;;;29.25;15.07;;;9.40;56.90;;;;;;5051916;28;20515;-73
2022/03/28 03:24:38;;;;;;;33.33;14.85;;;9.50;56.80;;;;;;5051878;28;20012;-73
2022/03/28 03:27:04;;;;;;;27.05;15.82;;;9.50;56.30;;;;;;5033936;28;20423;-73
2022/03/28 03:29:30;;;;;;;33.15;15.43;;;9.50;55.70;;;;;;5051463;28;20025;-73
2022/03/28 03:31:56;;;;;;;30.67;17.13;;;9.50;55.60;;;;;;5050930;28;20025;-73
2022/03/28 03:34:22;;;;;;;29.92;15.18;;;9.50;55.30;;;;;;5051467;28;20192;-73
2022/03/28 03:36:47;;;;;;;26.85;15.13;;;9.60;54.80;;;;;;5033573;28;20112;-73
2022/03/28 03:39:13;;;;;;;28.92;14.90;;;9.70;54.20;;;;;;5051710;28;20025;-73
2022/03/28 03:41:39;;;;;;;29.55;16.02;;;9.80;53.40;;;;;;5034704;28;20049;-73
2022/03/28 03:44:06;;;;;;;26.55;14.98;;;9.90;52.60;;;;;;5013863;28;20104;-73
2022/03/28 03:46:32;;;;;;;28.38;14.75;;;10.00;52.20;;;;;;5031718;28;20440;-73
2022/03/28 03:48:58;;;;;;;30.08;15.82;;;10.10;52.10;;;;;;5013762;28;20033;-73
2022/03/28 03:51:24;;;;;;;29.27;14.95;;;10.10;52.00;;;;;;5031449;28;20544;-73
2022/03/28 03:53:50;;;;;;;25.73;15.05;;;10.10;52.00;;;;;;5013724;28;20033;-73
2022/03/28 03:56:16;;;;;;;30.30;15.07;;;10.10;51.60;;;;;;5013603;28;20421;-73
2022/03/28 03:58:42;;;;;;;31.00;14.77;;;10.10;51.20;;;;;;5031325;28;20045;-73
2022/03/28 04:01:08;;;;;;;23.40;15.02;;;10.20;51.20;;;;;;5031456;28;20053;-73
2022/03/28 04:03:35;;;;;;;29.10;15.57;;;10.20;51.00;;;;;;5031087;28;20044;-73
2022/03/28 04:06:01;;;;;;;28.05;15.52;;;10.20;51.10;;;;;;5031102;28;20053;-73
2022/03/28 04:08:27;;;;;;;34.55;16.33;;;10.20;51.20;;;;;;5031457;28;20052;-73
2022/03/28 04:10:56;;;;;;;26.70;14.07;;;10.20;51.40;;;;;;5031247;28;20031;-73
2022/03/28 04:13:22;;;;;;;30.27;14.82;;;10.20;51.20;;;;;;5013261;28;20072;-73
2022/03/28 04:15:48;;;;;;;28.02;14.52;;;10.20;51.20;;;;;;5031304;28;20022;-73
2022/03/28 04:18:14;;;;;;;28.98;14.55;;;10.20;51.20;;;;;;5031311;28;20437;-73
2022/03/28 04:20:40;;;;;;;30.45;15.50;;;10.20;50.80;;;;;;5031133;28;20022;-73
2022/03/28 04:23:06;;;;;;;28.75;14.95;;;10.30;50.40;;;;;;5031129;28;20072;-73
2022/03/28 04:25:32;;;;;;;30.08;16.15;;;10.30;50.20;;;;;;5031081;28;20100;-73
2022/03/28 04:27:58;;;;;;;33.70;16.08;;;10.30;50.40;;;;;;5013341;28;20117;-73
2022/03/28 04:30:24;;;;;;;27.10;15.45;;;10.30;50.70;;;;;;5030989;28;20037;-73
2022/03/28 04:32:50;;;;;;;33.00;15.32;;;10.30;50.40;;;;;;5031176;28;20033;-73
2022/03/28 04:35:16;;;;;;;32.42;15.65;;;10.30;50.00;;;;;;5032040;28;20030;-73
2022/03/28 04:37:43;;;;;;;29.15;15.88;;;10.30;50.00;;;;;;5030771;28;20104;-73
2022/03/28 04:40:15;;;;;;;30.65;14.98;;;10.30;50.90;;;;;;5029980;28;20033;-72
2022/03/28 04:42:40;;;;;;;36.15;17.17;;;10.30;50.50;;;;;;5032477;28;20135;-73
2022/03/28 04:45:07;;;;;;;34.92;15.77;;;10.30;50.50;;;;;;5033955;28;20473;-73
2022/03/28 04:47:36;;;;;;;29.40;15.80;;;10.30;50.50;;;;;;5034084;28;20021;-73
2022/03/28 04:50:03;;;;;;;31.50;15.93;;;10.20;50.70;;;;;;5034688;28;20025;-73
2022/03/28 04:52:29;;;;;;;37.15;16.00;;;10.20;50.80;;;;;;5033891;28;20029;-73
2022/03/28 04:54:55;;;;;;;27.58;14.50;;;10.10;50.70;;;;;;5033947;28;20610;-73
2022/03/28 04:57:21;;;;;;;32.33;15.27;;;10.10;50.60;;;;;;5033902;28;20560;-73
2022/03/28 04:59:46;;;;;;;33.58;15.82;;;10.20;50.70;;;;;;5034953;28;20052;-73
2022/03/28 05:02:12;;;;;;;30.63;15.15;;;10.20;50.60;;;;;;5017614;28;20160;-73
2022/03/28 05:04:38;;;;;;;31.33;15.75;;;10.20;50.20;;;;;;5018063;28;20362;-73
2022/03/28 05:07:04;;;;;;;29.67;14.65;;;10.20;49.80;;;;;;5035082;28;20034;-73
2022/03/28 05:09:29;;;;;;;34.35;15.85;;;10.30;49.80;;;;;;4998063;28;20490;-73
2022/03/28 05:11:55;;;;;;;31.52;16.08;;;10.30;49.60;;;;;;5015708;28;20393;-73
2022/03/28 05:14:22;;;;;;;32.58;16.40;;;10.30;49.80;;;;;;5015532;28;20465;-73
2022/03/28 05:16:48;;;;;;;25.63;14.45;;;10.30;50.00;;;;;;4997957;28;20026;-73
2022/03/28 05:19:15;;;;;;;34.97;16.63;;;10.30;49.90;;;;;;5015593;28;20037;-73
2022/03/28 05:21:41;;;;;;;36.20;16.35;;;10.30;50.00;;;;;;5015210;28;20025;-78
2022/03/28 05:24:06;;;;;;;28.05;15.32;;;10.30;50.00;;;;;;5014078;28;20746;-78
2022/03/28 05:26:32;;;;;;;28.42;15.85;;;10.30;50.00;;;;;;5012815;28;20030;-78
2022/03/28 05:28:58;;;;;;;31.13;16.55;;;10.30;49.80;;;;;;5012293;28;20099;-78
2022/03/28 05:31:24;;;;;;;30.15;15.45;;;10.30;49.50;;;;;;5021972;28;20036;-78
2022/03/28 05:33:50;;;;;;;27.60;14.15;;;10.30;49.30;;;;;;5014606;28;20072;-78
2022/03/28 05:36:16;;;;;;;36.15;16.85;;;10.40;49.50;;;;;;5034129;28;20028;-78
2022/03/28 05:38:42;;;;;;;31.50;16.13;;;10.40;49.30;;;;;;5017275;28;20022;-78
2022/03/28 05:41:09;;;;;;;31.55;16.52;;;10.40;49.20;;;;;;5029301;28;20068;-78
2022/03/28 05:43:36;;;;;;;37.60;17.52;;;10.50;49.20;;;;;;5055121;28;20021;-78
2022/03/28 05:46:03;;;;;;;30.15;16.27;;;10.50;49.30;;;;;;5054969;28;20029;-78
2022/03/28 05:48:29;;;;;;;29.67;15.88;;;10.50;49.30;;;;;;5054927;28;20013;-78
2022/03/28 05:50:56;;;;;;;32.00;15.90;;;10.50;49.30;;;;;;5054897;28;20025;-79
2022/03/28 05:53:21;;;;;;;27.52;14.52;;;10.50;49.10;;;;;;5053744;28;20032;-78
2022/03/28 05:55:48;;;;;;;34.00;16.48;;;10.50;49.40;;;;;;5054845;28;20025;-78
2022/03/28 05:58:14;;;;;;;31.02;17.02;;;10.60;49.60;;;;;;5036871;28;20392;-78
2022/03/28 06:00:40;;;;;;;38.63;16.10;;;10.60;49.60;;;;;;5033108;28;20037;-78
2022/03/28 06:03:07;;;;;;;36.40;16.58;;;10.60;49.20;;;;;;5034620;28;20048;-78
2022/03/28 06:05:32;;;;;;;30.83;15.27;;;10.70;49.50;;;;;;5034770;28;20025;-78
2022/03/28 06:07:59;;;;;;;31.77;15.55;;;10.80;48.70;;;;;;5016907;28;20022;-78
2022/03/28 06:10:26;;;;;;;31.35;16.17;;;10.80;48.90;;;;;;5034792;28;20026;-78
2022/03/28 06:12:52;;;;;;;32.55;15.60;;;10.80;49.20;;;;;;5034512;28;20036;-78
2022/03/28 06:15:18;;;;;;;29.80;15.45;;;10.80;49.10;;;;;;5034577;28;20025;-78
2022/03/28 06:17:44;;;;;;;35.03;15.30;;;10.90;49.40;;;;;;5034496;28;20032;-78
2022/03/28 06:20:11;;;;;;;32.88;15.55;;;10.90;49.80;;;;;;5034551;28;20036;-78
2022/03/28 06:22:37;;;;;;;30.25;14.77;;;11.00;49.80;;;;;;5034324;28;20075;-78
2022/03/28 06:25:04;;;;;;;33.65;16.42;;;11.00;49.90;;;;;;5034475;28;20028;-78
2022/03/28 06:27:30;;;;;;;29.98;15.50;;;11.00;50.00;;;;;;5040295;28;20048;-78
2022/03/28 06:29:57;;;;;;;28.95;15.18;;;11.10;49.90;;;;;;5035781;28;20029;-78
2022/03/28 06:32:22;;;;;;;31.05;15.88;;;11.10;50.10;;;;;;5053129;28;20459;-78
2022/03/28 06:34:50;;;;;;;32.00;16.70;;;11.10;50.30;;;;;;5053828;28;20033;-78
2022/03/28 06:37:16;;;;;;;34.72;15.90;;;11.20;50.60;;;;;;5053802;28;20021;-78
2022/03/28 06:39:42;;;;;;;33.38;15.88;;;11.20;51.30;;;;;;5053831;28;20377;-78
2022/03/28 06:42:09;;;;;;;34.30;16.52;;;11.30;51.40;;;;;;5053891;28;20029;-78
2022/03/28 06:44:35;;;;;;;34.92;15.82;;;11.30;51.70;;;;;;5053633;28;20017;-78
2022/03/28 06:47:01;;;;;;;31.85;14.68;;;11.40;51.90;;;;;;5053364;28;20029;-78
2022/03/28 06:49:27;;;;;;;28.85;15.30;;;11.40;51.70;;;;;;5052912;28;20451;-78
2022/03/28 06:51:53;;;;;;;30.23;15.52;;;11.50;51.70;;;;;;5053899;28;20155;-78
2022/03/28 06:54:19;;;;;;;24.98;14.05;;;11.50;51.80;;;;;;5035225;28;20116;-78
2022/03/28 06:56:46;;;;;;;31.42;15.70;;;11.60;52.20;;;;;;5053177;28;20499;-78
2022/03/28 06:59:12;;;;;;;29.50;16.88;;;11.60;52.70;;;;;;5053260;28;20020;-79
2022/03/28 07:01:39;;;;;;;63.20;40.25;;;11.70;53.30;;;;;;5035559;28;20400;-78
2022/03/28 07:04:05;;;;;;;62.80;41.55;;;11.90;65.10;;;;;;5035445;28;20384;-77
2022/03/28 07:06:32;;;;;;;59.90;37.85;;;12.10;66.80;;;;;;5052764;28;20040;-78
2022/03/28 07:08:57;;;;;;;50.22;29.88;;;12.20;65.00;;;;;;5052376;28;20035;-78
2022/03/28 07:11:25;;;;;;;45.97;26.23;;;12.30;61.70;;;;;;5034669;28;20392;-78
2022/03/28 07:13:51;;;;;;;41.75;23.55;;;12.40;62.40;;;;;;5033734;28;20025;-78
2022/03/28 07:16:17;;;;;;;44.53;26.25;;;12.50;60.00;;;;;;5034966;28;20033;-78
2022/03/28 07:18:42;;;;;;;45.40;23.17;;;12.60;59.80;;;;;;5053483;28;20071;-78
2022/03/28 07:21:09;;;;;;;37.80;18.42;;;12.60;59.00;;;;;;5035758;28;20029;-78
2022/03/28 07:23:35;;;;;;;34.13;18.27;;;12.50;55.80;;;;;;5053044;28;20021;-78
2022/03/28 07:26:01;;;;;;;41.40;19.10;;;12.50;56.30;;;;;;5053107;28;20048;-78
2022/03/28 07:28:27;;;;;;;36.45;18.88;;;12.50;57.90;;;;;;5053100;28;20013;-78
2022/03/28 07:30:52;;;;;;;38.63;18.25;;;12.50;58.40;;;;;;5034924;28;20400;-78
2022/03/28 07:33:19;;;;;;;38.40;19.80;;;12.50;58.00;;;;;;5052690;28;20029;-78
2022/03/28 07:35:45;;;;;;;43.40;18.95;;;12.60;57.30;;;;;;5035199;28;20029;-78
2022/03/28 07:38:11;;;;;;;41.50;19.95;;;12.60;57.50;;;;;;5034389;28;20036;-78
2022/03/28 07:40:40;;;;;;;46.40;19.25;;;12.60;57.00;;;;;;5050225;28;20041;-74
2022/03/28 07:43:07;;;;;;;42.83;20.58;;;12.60;56.80;;;;;;5049781;28;20021;-75
2022/03/28 07:45:33;;;;;;;44.67;20.02;;;12.60;57.00;;;;;;5049569;28;20584;-74
2022/03/28 07:47:59;;;;;;;39.58;18.95;;;12.70;56.10;;;;;;5049530;28;20029;-74
2022/03/28 07:50:25;;;;;;;39.65;19.77;;;12.70;57.00;;;;;;5049713;28;20116;-74
2022/03/28 07:52:51;;;;;;;42.40;19.88;;;12.80;57.00;;;;;;5051267;28;20502;-74
2022/03/28 07:55:18;;;;;;;32.65;17.17;;;12.80;56.70;;;;;;5032587;28;20025;-74
2022/03/28 07:57:44;;;;;;;43.65;19.17;;;12.90;56.00;;;;;;5051002;28;20083;-75
2022/03/28 08:00:13;;;;;;;41.13;18.92;;;12.90;56.10;;;;;;5047410;28;20104;-74
2022/03/28 08:02:40;;;;;;;42.40;18.90;;;12.90;56.30;;;;;;5028369;28;20112;-74
2022/03/28 08:05:07;;;;;;;39.03;17.75;;;13.00;56.20;;;;;;5046663;28;20029;-75
2022/03/28 08:07:33;;;;;;;36.20;17.27;;;13.10;54.70;;;;;;5047278;28;20032;-74
2022/03/28 08:09:59;;;;;;;41.60;18.42;;;13.20;53.80;;;;;;5046452;28;20029;-74
2022/03/28 08:12:31;;;;;;;43.22;18.65;;;13.30;53.10;;;;;;5045775;28;20091;-73
2022/03/28 08:14:57;;;;;;;38.67;17.65;;;13.20;54.10;;;;;;5047477;28;20083;-73
2022/03/28 08:17:23;;;;;;;39.60;19.33;;;13.30;53.20;;;;;;5049069;28;20017;-73
2022/03/28 08:19:49;;;;;;;47.65;20.02;;;13.50;52.90;;;;;;5051084;28;20024;-73
2022/03/28 08:22:16;;;;;;;44.72;19.58;;;13.50;53.50;;;;;;5033526;28;20021;-73
2022/03/28 08:24:43;;;;;;;40.50;18.35;;;13.60;53.90;;;;;;5050831;28;20021;-73
2022/03/28 08:27:09;;;;;;;38.45;19.17;;;13.70;54.00;;;;;;5032918;28;20032;-75
2022/03/28 08:29:35;;;;;;;44.60;19.55;;;13.70;54.10;;;;;;5051369;28;20029;-73
2022/03/28 08:32:02;;;;;;;57.08;20.30;;;13.80;54.10;;;;;;5017729;28;20092;-73
2022/03/28 08:34:28;;;;;;;43.17;20.00;;;13.80;53.80;;;;;;5030868;28;20018;-73
2022/03/28 08:36:55;;;;;;;51.10;19.17;;;13.80;53.30;;;;;;5012927;28;20022;-74
2022/03/28 08:39:26;;;;;;;45.63;19.13;;;13.80;53.60;;;;;;5012620;28;20485;-73
2022/03/28 08:41:53;;;;;;;40.00;18.65;;;13.90;52.60;;;;;;5060565;28;20507;-73
2022/03/28 08:44:20;;;;;;;42.50;18.95;;;13.90;51.70;;;;;;5071152;28;20526;-73
2022/03/28 08:46:48;;;;;;;45.88;20.73;;;13.90;53.20;;;;;;5052267;28;20361;-73
2022/03/28 08:49:14;;;;;;;41.53;19.50;;;14.00;52.90;;;;;;5070361;28;20055;-73
2022/03/28 08:51:40;;;;;;;39.10;19.45;;;14.10;52.30;;;;;;5071169;28;20114;-73
2022/03/28 08:54:29;;;;;;;42.00;18.88;;;14.10;52.50;;;;;;5051852;28;20486;-73
2022/03/28 08:56:55;;;;;;;44.50;20.35;;;14.20;53.90;;;;;;5059017;28;20207;-74
2022/03/28 08:59:20;;;;;;;41.28;19.17;;;14.30;51.00;;;;;;5030023;28;20032;-74
2022/03/28 09:01:49;;;;;;;47.15;20.90;;;14.40;47.90;;;;;;5032707;28;20017;-73
2022/03/28 09:04:15;;;;;;;47.55;21.60;;;14.50;48.20;;;;;;5049371;28;20028;-73
2022/03/28 09:06:43;;;;;;;53.45;21.95;;;14.50;48.80;;;;;;5030085;28;20033;-74
2022/03/28 09:09:22;;;;;;;46.65;21.38;;;14.60;49.80;;;;;;5012889;28;20017;-73
2022/03/28 09:11:57;;;;;;;38.67;21.00;;;14.80;50.10;;;;;;5030644;28;20025;-74
2022/03/28 09:14:29;;;;;;;39.17;19.13;;;14.70;49.20;;;;;;5012707;28;20054;-74
2022/03/28 09:17:15;;;;;;;39.58;20.00;;;14.80;49.70;;;;;;5011914;28;20064;-74
2022/03/28 09:19:58;;;;;;;42.60;19.85;;;14.80;49.20;;;;;;5030554;28;20018;-73
2022/03/28 09:22:30;;;;;;;40.22;20.83;;;14.70;50.30;;;;;;5030099;28;20125;-73
2022/03/28 09:25:01;;;;;;;36.97;18.20;;;14.90;46.90;;;;;;5030200;28;20108;-73
2022/03/28 09:27:30;;;;;;;37.97;19.35;;;15.00;45.90;;;;;;5011629;28;20061;-73
2022/03/28 09:29:55;;;;;;;33.35;17.38;;;15.00;46.20;;;;;;5029394;28;20024;-73
2022/03/28 09:32:23;;;;;;;36.40;17.05;;;15.00;45.90;;;;;;5030085;28;20030;-73
2022/03/28 09:35:12;;;;;;;31.70;18.08;;;15.00;44.10;;;;;;5029400;28;20025;-73
2022/03/28 09:38:04;;;;;;;37.10;17.90;;;14.90;45.20;;;;;;5030090;28;20021;-73
2022/03/28 09:40:51;;;;;;;38.37;18.37;;;15.00;47.10;;;;;;5033474;28;20405;-73
2022/03/28 09:43:20;;;;;;;39.75;18.40;;;15.20;46.80;;;;;;5033717;28;20260;-73
2022/03/28 09:45:54;;;;;;;44.03;19.38;;;15.20;47.10;;;;;;5039428;28;20040;-73
2022/03/28 09:48:22;;;;;;;34.20;18.60;;;15.40;47.60;;;;;;5053404;28;20108;-73
2022/03/28 09:50:58;;;;;;;40.55;19.55;;;15.50;47.40;;;;;;5034961;28;20074;-73
2022/03/28 09:53:31;;;;;;;38.28;19.13;;;15.60;47.40;;;;;;5052715;28;20025;-73
2022/03/28 09:56:04;;;;;;;43.88;18.90;;;15.80;47.50;;;;;;5050449;28;20132;-73
2022/03/28 09:58:35;;;;;;;38.40;18.90;;;15.80;49.00;;;;;;5052846;28;20017;-73
2022/03/28 10:01:04;;;;;;;47.38;19.88;;;15.80;49.90;;;;;;5052822;28;20021;-73
2022/03/28 10:03:35;;;;;;;39.55;18.60;;;15.80;49.70;;;;;;5052918;28;20578;-73
2022/03/28 10:06:02;;;;;;;40.92;19.42;;;15.90;50.10;;;;;;5052064;28;20029;-73
2022/03/28 10:08:28;;;;;;;39.97;19.10;;;16.00;50.20;;;;;;5052704;28;20446;-73
2022/03/28 10:10:59;;;;;;;47.17;19.67;;;16.00;50.60;;;;;;5049817;28;20358;-73
2022/03/28 10:13:30;;;;;;;44.80;20.05;;;16.30;50.70;;;;;;5050357;28;20024;-73
2022/03/28 10:15:57;;;;;;;34.25;18.55;;;16.40;47.40;;;;;;5025355;28;20520;-73
2022/03/28 10:18:27;;;;;;;38.22;18.92;;;16.50;48.90;;;;;;5048151;28;20029;-73
2022/03/28 10:20:54;;;;;;;41.95;20.42;;;16.60;48.30;;;;;;5048408;28;20025;-74
2022/03/28 10:23:26;;;;;;;34.80;19.02;;;16.70;48.80;;;;;;5048189;28;20380;-74
2022/03/28 10:25:54;;;;;;;41.30;17.85;;;16.80;50.00;;;;;;5048076;28;20330;-73
2022/03/28 10:28:20;;;;;;;40.67;20.13;;;16.90;48.40;;;;;;5048036;28;20025;-73
2022/03/28 10:30:47;;;;;;;32.88;17.90;;;16.90;47.10;;;;;;5048608;28;20029;-73
2022/03/28 10:33:18;;;;;;;36.05;18.05;;;17.10;48.50;;;;;;5047072;28;20028;-74
2022/03/28 10:35:59;;;;;;;28.20;16.50;;;17.40;47.60;;;;;;5048522;28;20021;-74
2022/03/28 10:38:26;;;;;;;25.83;15.60;;;17.50;43.50;;;;;;5045234;28;20095;-73
2022/03/28 10:41:16;;;;;;;26.20;13.93;;;17.70;41.70;;;;;;5029630;28;20048;-74
2022/03/28 10:43:42;;;;;;;27.55;13.93;;;18.10;38.40;;;;;;5036767;28;20397;-73
2022/03/28 10:46:11;;;;;;;30.05;14.98;;;18.20;37.30;;;;;;5030846;28;20057;-74
2022/03/28 10:48:46;;;;;;;19.83;12.27;;;18.30;37.10;;;;;;5045926;28;20083;-73
2022/03/28 10:51:16;;;;;;;26.48;14.23;;;18.40;36.40;;;;;;5046791;28;20033;-74
2022/03/28 10:53:46;;;;;;;25.08;14.20;;;18.60;38.70;;;;;;5046345;28;20101;-74
2022/03/28 10:56:20;;;;;;;24.98;13.38;;;18.70;38.90;;;;;;5047759;28;20021;-72
2022/03/28 10:59:09;;;;;;;30.88;14.57;;;18.80;38.30;;;;;;5048395;28;20025;-72
2022/03/28 11:01:36;;;;;;;27.02;14.57;;;19.00;38.40;;;;;;5047536;28;20021;-73
2022/03/28 11:04:24;;;;;;;22.20;13.07;;;19.00;39.40;;;;;;5048461;28;20036;-72
2022/03/28 11:07:07;;;;;;;21.27;13.50;;;19.20;37.00;;;;;;5047396;28;20575;-73
2022/03/28 11:09:35;;;;;;;20.27;13.00;;;19.20;34.70;;;;;;5047783;28;20036;-72
2022/03/28 11:12:09;;;;;;;23.48;13.40;;;19.10;34.40;;;;;;5048159;28;20025;-73
2022/03/28 11:14:40;;;;;;;19.17;13.02;;;19.20;35.30;;;;;;5048152;28;20025;-72
2022/03/28 11:17:28;;;;;;;20.95;12.02;;;19.30;34.50;;;;;;5047498;28;20698;-72
2022/03/28 11:20:00;;;;;;;21.80;13.50;;;19.20;32.30;;;;;;5048151;28;20357;-73
2022/03/28 11:22:38;;;;;;;19.85;12.13;;;19.30;32.70;;;;;;5047710;28;20108;-72
2022/03/28 11:25:05;;;;;;;20.08;12.73;;;19.50;32.70;;;;;;5047825;28;20146;-72
2022/03/28 11:27:32;;;;;;;29.30;13.90;;;19.50;29.10;;;;;;5046686;28;20107;-73
2022/03/28 11:30:11;;;;;;;21.10;13.60;;;19.60;32.00;;;;;;5047596;28;20106;-73
2022/03/28 11:32:38;;;;;;;23.13;11.93;;;19.60;30.70;;;;;;5047718;28;20082;-73
2022/03/28 11:35:05;;;;;;;22.42;12.23;;;19.50;30.30;;;;;;5047339;28;20252;-73
2022/03/28 11:37:31;;;;;;;20.20;13.05;;;19.60;29.60;;;;;;5046630;28;20032;-73
2022/03/28 11:40:00;;;;;;;20.35;11.48;;;19.80;29.70;;;;;;5029595;28;20074;-73
2022/03/28 11:42:29;;;;;;;20.55;11.77;;;19.80;28.70;;;;;;5047058;28;20052;-73
2022/03/28 11:44:56;;;;;;;15.27;10.80;;;19.80;28.70;;;;;;5046850;28;20045;-73
2022/03/28 11:47:23;;;;;;;18.55;11.60;;;19.80;28.50;;;;;;5047124;28;20033;-72
2022/03/28 11:50:00;;;;;;;17.05;10.25;;;19.80;28.70;;;;;;5047030;28;20024;-72
2022/03/28 11:52:31;;;;;;;21.95;12.73;;;19.90;26.60;;;;;;5046124;28;20421;-73
2022/03/28 11:54:58;;;;;;;24.45;13.95;;;19.90;28.60;;;;;;5028644;28;20060;-73
2022/03/28 12:00:23;;;;;;;28.20;15.07;;;20.00;28.50;;;;;;5046555;28;20036;-72
2022/03/28 12:02:54;;;;;;;30.13;16.80;;;20.10;28.80;;;;;;5046372;28;20017;-73
2022/03/28 12:05:30;;;;;;;21.65;12.10;;;20.20;29.80;;;;;;5047295;28;20029;-72
2022/03/28 12:07:57;;;;;;;21.30;12.60;;;20.30;27.60;;;;;;5047055;28;20025;-72
2022/03/28 12:10:27;;;;;;;21.88;13.02;;;20.30;27.70;;;;;;5046789;28;20009;-73
2022/03/28 12:12:53;;;;;;;26.20;14.70;;;20.40;28.90;;;;;;5027304;28;20025;-73
2022/03/28 12:15:30;;;;;;;25.90;13.80;;;20.50;29.30;;;;;;5031955;28;20025;-73
2022/03/28 12:17:58;;;;;;;29.60;14.85;;;20.50;28.30;;;;;;5045432;28;20025;-73
2022/03/28 12:20:28;;;;;;;28.63;15.32;;;20.60;27.90;;;;;;5059652;28;20024;-74
2022/03/28 12:22:54;;;;;;;30.15;15.68;;;20.70;29.10;;;;;;5067117;28;20560;-74
2022/03/28 12:25:25;;;;;;;21.42;12.30;;;20.80;29.00;;;;;;5063420;28;20024;-73
2022/03/28 12:27:55;;;;;;;23.15;11.50;;;20.80;29.30;;;;;;5046574;28;20044;-73
2022/03/28 12:30:35;;;;;;;21.10;11.68;;;20.90;28.90;;;;;;5029575;28;20057;-73
2022/03/28 12:33:12;;;;;;;23.58;12.48;;;20.90;29.20;;;;;;5029035;28;20025;-73
2022/03/28 12:35:40;;;;;;;22.52;12.50;;;21.00;28.40;;;;;;5047061;28;20029;-74
2022/03/28 12:38:08;;;;;;;21.17;12.45;;;21.00;28.20;;;;;;5046679;28;20512;-73